• Join FlightAware (Why Join?)
  • Login
  • US Flag 
Gobble Gobble! 
06:47PM EST


 

Airport Tracker/Info


-or-


 

Live Flight TrackerFlight Track Log ✈ FLG3944 ✈ 14-Jul-2013 ✈ KDTW - KCRW

Flight Track Log - Related Links

Times and Time Zones

All times are in EDT time to prevent confusion due to time zone crossing. See the FLG3944 flight status page for this flight to view local times or setup timezone preferences in your user account.

Time Position Orientation Groundspeed Altitude Reporting Facility
EDT Latitude Longitude Course Direction KTS MPH feet Rate Location/Type
10:39PM 42.1994 -83.3581 90° East 151 174 1,300  Level Cleveland Center
10:40PM 42.1383 -83.3806 195° South 210 242 3,600 1,800 Climbing Cleveland Center
10:41PM 42.0775 -83.4003 194° South 269 310 5,300 2,220 Climbing Cleveland Center
10:42PM 42.1326 -82.7977 114° Southeast  Level FlightAware Approximate
10:42PM 41.9981 -83.3214 144° Southeast 281 323 9,000  Level Cleveland Center
10:43PM 42.1078 -82.6606 98° East  Level FlightAware Approximate
10:43PM 42.0047 -83.2239 85° East 276 318 10,000  Level Cleveland Center
10:44PM 42.0833 -82.5236 90° East  Level FlightAware Approximate
10:44PM 42.0250 -83.0542 81° East 335 386 10,300  Level Cleveland Center
10:45PM 42.0406 -82.9122 82° East 369 425 12,100 1,380 Climbing Cleveland Center
10:46PM 42.0558 -82.7672 82° East 388 447 13,100 960 Climbing Cleveland Center
10:47PM 42.0733 -82.6139 81° East 399 459 14,100 960 Climbing Cleveland Center
10:48PM 42.0822 -82.4603 85° East 405 466 15,100 960 Climbing Cleveland Center
10:49PM 42.0617 -82.3089 100° East 405 466 16,100 960 Climbing Cleveland Center
10:50PM 42.0367 -82.1572 102° East 405 466 17,100 900 Climbing Cleveland Center
10:51PM 41.9944 -82.0414 116° Southeast 396 456 18,000 780 Climbing Cleveland Center
10:52PM 41.9017 -81.9503 144° Southeast 394 453 18,700 840 Climbing Cleveland Center
10:53PM 41.8089 -81.8644 145° Southeast 406 467 19,700 960 Climbing Cleveland Center
10:54PM 41.7161 -81.7736 144° Southeast 411 473 20,700 1,020 Climbing Cleveland Center
10:55PM 41.6169 -81.6803 145° Southeast 411 473 21,800 1,020 Climbing Cleveland Center
10:56PM 41.5239 -81.5928 145° Southeast 411 473 22,800 960 Climbing Cleveland Center
10:57PM 41.4331 -81.5025 143° Southeast 411 473 23,800 960 Climbing Cleveland Center
10:58PM 41.3394 -81.4708 166° South 390 449 24,800 600 Climbing Cleveland Center
10:59PM 41.2247 -81.4831 185° South 390 449 25,000 60 Climbing Cleveland Center
11:00PM 41.1039 -81.4925 183° South 414 476 25,000  Level Cleveland Center
11:01PM 40.9828 -81.5072 185° South 441 507 25,000  Level Cleveland Center
11:02PM 40.8575 -81.5219 185° South 447 514 25,000  Level Cleveland Center
11:03PM 40.7344 -81.5339 184° South 447 514 25,000  Level Cleveland Center
11:04PM 40.5967 -81.5483 185° South 447 514 25,000 -180 Level Cleveland Center
11:06PM 40.3494 -81.5722 184° South 459 528 24,500 -360 Descending Indianapolis Center
11:07PM 40.2172 -81.5847 184° South 468 539 24,000 -300 Descending Indianapolis Center
11:08PM 40.0856 -81.5972 184° South 470 541 24,000  Level Indianapolis Center
11:09PM 39.9547 -81.6128 185° South 466 536 24,000  Level Indianapolis Center
11:10PM 39.8250 -81.6267 185° South 463 533 24,000  Level Indianapolis Center
11:11PM 39.6822 -81.6400 184° South 460 529 24,000  Level Indianapolis Center
11:12PM 39.5558 -81.6528 184° South 457 526 24,000  Level Indianapolis Center
11:13PM 39.4294 -81.6642 184° South 456 525 24,000 -1,380 Level Indianapolis Center
11:14PM 39.3147 -81.6781 185° South 412 474 21,200 -3,180 Descending Indianapolis Center
11:16PM 39.2011 -81.6878 184° South 409 471 17,600 -3,780 Descending Indianapolis Center
11:17PM 39.0919 -81.6969 184° South 396 456 13,600 -3,240 Descending Indianapolis Center
11:18PM 38.9858 -81.7072 184° South 386 444 11,100 -1,500 Descending Indianapolis Center
11:19PM 38.8861 -81.7178 185° South 364 419 10,600 -600 Descending Indianapolis Center
11:20PM 38.7989 -81.7272 185° South 324 373 9,900 -1,320 Descending Indianapolis Center
11:21PM 38.7219 -81.7344 184° South 284 327 8,000 -1,740 Descending Indianapolis Center
11:22PM 38.6472 -81.7361 181° South 273 314 6,400 -1,920 Descending Indianapolis Center
11:23PM 38.5628 -81.7247 174° South 259 298 4,100 -1,740 Descending Indianapolis Center
11:24PM 38.4958 -81.7069 168° South 251 289 3,000 -600 Descending Indianapolis Center
11:25PM 38.4283 -81.6950 172° South 247 284 3,000  Level Indianapolis Center